sensor_id;sensor_type;location;lat;lon;timestamp;P1;durP1;ratioP1;P2;durP2;ratioP2
49450;SDS011;35336;48.400;10.886;2023-07-13T00:00:06;7.05;;;3.08;;
49450;SDS011;35336;48.400;10.886;2023-07-13T00:00:22;7.30;;;2.80;;
49450;SDS011;35336;48.400;10.886;2023-07-13T00:00:39;7.82;;;3.05;;
49450;SDS011;35336;48.400;10.886;2023-07-13T00:00:54;6.88;;;3.25;;
49450;SDS011;35336;48.400;10.886;2023-07-13T00:01:10;6.38;;;3.13;;
49450;SDS011;35336;48.400;10.886;2023-07-13T00:01:25;5.60;;;3.13;;
49450;SDS011;35336;48.400;10.886;2023-07-13T00:01:45;4.55;;;3.15;;
49450;SDS011;35336;48.400;10.886;2023-07-13T00:02:03;7.20;;;3.50;;
49450;SDS011;35336;48.400;10.886;2023-07-13T00:02:20;6.25;;;3.50;;
49450;SDS011;35336;48.400;10.886;2023-07-13T00:02:36;6.75;;;3.40;;
49450;SDS011;35336;48.400;10.886;2023-07-13T00:02:51;6.17;;;3.10;;
49450;SDS011;35336;48.400;10.886;2023-07-13T00:03:07;5.90;;;3.20;;
49450;SDS011;35336;48.400;10.886;2023-07-13T00:03:26;4.97;;;3.30;;
49450;SDS011;35336;48.400;10.886;2023-07-13T00:03:42;3.50;;;3.00;;
49450;SDS011;35336;48.400;10.886;2023-07-13T00:03:57;5.97;;;3.13;;
49450;SDS011;35336;48.400;10.886;2023-07-13T00:04:13;7.90;;;3.60;;
49450;SDS011;35336;48.400;10.886;2023-07-13T00:04:29;6.38;;;3.45;;
49450;SDS011;35336;48.400;10.886;2023-07-13T00:04:46;5.53;;;3.35;;
49450;SDS011;35336;48.400;10.886;2023-07-13T00:05:02;7.57;;;3.47;;
49450;SDS011;35336;48.400;10.886;2023-07-13T00:05:17;6.68;;;3.13;;
49450;SDS011;35336;48.400;10.886;2023-07-13T00:05:32;5.67;;;3.00;;
49450;SDS011;35336;48.400;10.886;2023-07-13T00:05:56;7.23;;;3.00;;
49450;SDS011;35336;48.400;10.886;2023-07-13T00:06:12;6.15;;;3.17;;
49450;SDS011;35336;48.400;10.886;2023-07-13T00:06:32;6.35;;;3.60;;
49450;SDS011;35336;48.400;10.886;2023-07-13T00:06:50;5.95;;;3.53;;
49450;SDS011;35336;48.400;10.886;2023-07-13T00:07:10;5.18;;;3.42;;
49450;SDS011;35336;48.400;10.886;2023-07-13T00:07:25;5.05;;;3.25;;
49450;SDS011;35336;48.400;10.886;2023-07-13T00:07:40;6.00;;;3.17;;
49450;SDS011;35336;48.400;10.886;2023-07-13T00:07:56;6.20;;;3.23;;
49450;SDS011;35336;48.400;10.886;2023-07-13T00:08:13;8.60;;;3.08;;
49450;SDS011;35336;48.400;10.886;2023-07-13T00:08:30;8.97;;;3.10;;
49450;SDS011;35336;48.400;10.886;2023-07-13T00:08:46;5.35;;;3.25;;
49450;SDS011;35336;48.400;10.886;2023-07-13T00:09:01;4.37;;;3.27;;
49450;SDS011;35336;48.400;10.886;2023-07-13T00:09:17;5.93;;;3.23;;
49450;SDS011;35336;48.400;10.886;2023-07-13T00:09:33;7.13;;;3.28;;
49450;SDS011;35336;48.400;10.886;2023-07-13T00:09:51;4.87;;;3.33;;
49450;SDS011;35336;48.400;10.886;2023-07-13T00:10:09;5.00;;;3.50;;
49450;SDS011;35336;48.400;10.886;2023-07-13T00:10:24;4.95;;;3.42;;
49450;SDS011;35336;48.400;10.886;2023-07-13T00:10:40;4.47;;;3.20;;
49450;SDS011;35336;48.400;10.886;2023-07-13T00:11:00;4.07;;;3.00;;
49450;SDS011;35336;48.400;10.886;2023-07-13T00:11:17;6.20;;;3.08;;
49450;SDS011;35336;48.400;10.886;2023-07-13T00:11:32;6.32;;;3.08;;
49450;SDS011;35336;48.400;10.886;2023-07-13T00:11:50;4.10;;;3.00;;
49450;SDS011;35336;48.400;10.886;2023-07-13T00:12:25;4.13;;;3.20;;
49450;SDS011;35336;48.400;10.886;2023-07-13T00:12:43;5.28;;;2.90;;
49450;SDS011;35336;48.400;10.886;2023-07-13T00:13:01;6.63;;;3.55;;
49450;SDS011;35336;48.400;10.886;2023-07-13T00:13:18;5.35;;;3.45;;
49450;SDS011;35336;48.400;10.886;2023-07-13T00:13:36;5.50;;;3.30;;
49450;SDS011;35336;48.400;10.886;2023-07-13T00:13:51;4.47;;;3.43;;
49450;SDS011;35336;48.400;10.886;2023-07-13T00:14:09;4.13;;;3.13;;
49450;SDS011;35336;48.400;10.886;2023-07-13T00:14:29;5.82;;;3.80;;
49450;SDS011;35336;48.400;10.886;2023-07-13T00:14:45;7.45;;;3.80;;
49450;SDS011;35336;48.400;10.886;2023-07-13T00:15:01;8.05;;;3.20;;
49450;SDS011;35336;48.400;10.886;2023-07-13T00:15:23;5.82;;;3.13;;
49450;SDS011;35336;48.400;10.886;2023-07-13T00:15:41;4.10;;;3.50;;
49450;SDS011;35336;48.400;10.886;2023-07-13T00:15:57;5.68;;;3.50;;
49450;SDS011;35336;48.400;10.886;2023-07-13T00:16:13;5.85;;;3.65;;
49450;SDS011;35336;48.400;10.886;2023-07-13T00:16:29;5.87;;;3.40;;
49450;SDS011;35336;48.400;10.886;2023-07-13T00:16:44;8.48;;;3.67;;
49450;SDS011;35336;48.400;10.886;2023-07-13T00:17:00;6.33;;;3.37;;
49450;SDS011;35336;48.400;10.886;2023-07-13T00:17:17;3.57;;;3.00;;
49450;SDS011;35336;48.400;10.886;2023-07-13T00:17:33;4.00;;;3.10;;
49450;SDS011;35336;48.400;10.886;2023-07-13T00:17:51;6.78;;;3.50;;
49450;SDS011;35336;48.400;10.886;2023-07-13T00:18:08;6.28;;;3.38;;
49450;SDS011;35336;48.400;10.886;2023-07-13T00:18:23;5.07;;;3.28;;
49450;SDS011;35336;48.400;10.886;2023-07-13T00:18:39;5.23;;;3.43;;
49450;SDS011;35336;48.400;10.886;2023-07-13T00:18:54;6.95;;;3.55;;
49450;SDS011;35336;48.400;10.886;2023-07-13T00:19:12;8.27;;;3.53;;
49450;SDS011;35336;48.400;10.886;2023-07-13T00:19:28;6.78;;;3.20;;
49450;SDS011;35336;48.400;10.886;2023-07-13T00:19:46;5.13;;;3.00;;
49450;SDS011;35336;48.400;10.886;2023-07-13T00:20:02;6.20;;;3.23;;
49450;SDS011;35336;48.400;10.886;2023-07-13T00:20:18;8.75;;;3.38;;
49450;SDS011;35336;48.400;10.886;2023-07-13T00:20:34;7.93;;;3.35;;
49450;SDS011;35336;48.400;10.886;2023-07-13T00:20:50;5.80;;;3.50;;
49450;SDS011;35336;48.400;10.886;2023-07-13T00:21:05;6.53;;;3.70;;
49450;SDS011;35336;48.400;10.886;2023-07-13T00:21:21;5.93;;;3.63;;
49450;SDS011;35336;48.400;10.886;2023-07-13T00:21:36;6.43;;;3.70;;
49450;SDS011;35336;48.400;10.886;2023-07-13T00:21:54;6.95;;;3.78;;
49450;SDS011;35336;48.400;10.886;2023-07-13T00:22:09;6.45;;;3.38;;
49450;SDS011;35336;48.400;10.886;2023-07-13T00:22:26;5.65;;;3.30;;
49450;SDS011;35336;48.400;10.886;2023-07-13T00:22:44;5.95;;;3.45;;
49450;SDS011;35336;48.400;10.886;2023-07-13T00:23:02;5.93;;;3.40;;
49450;SDS011;35336;48.400;10.886;2023-07-13T00:23:19;4.57;;;3.10;;
49450;SDS011;35336;48.400;10.886;2023-07-13T00:23:35;5.33;;;3.30;;
49450;SDS011;35336;48.400;10.886;2023-07-13T00:23:54;8.30;;;3.63;;
49450;SDS011;35336;48.400;10.886;2023-07-13T00:24:17;7.93;;;3.42;;
49450;SDS011;35336;48.400;10.886;2023-07-13T00:24:33;5.60;;;3.53;;
49450;SDS011;35336;48.400;10.886;2023-07-13T00:24:48;7.50;;;3.70;;
49450;SDS011;35336;48.400;10.886;2023-07-13T00:25:04;8.73;;;3.57;;
49450;SDS011;35336;48.400;10.886;2023-07-13T00:25:20;7.20;;;3.45;;
49450;SDS011;35336;48.400;10.886;2023-07-13T00:25:36;6.72;;;3.30;;
49450;SDS011;35336;48.400;10.886;2023-07-13T00:25:54;5.97;;;3.25;;
49450;SDS011;35336;48.400;10.886;2023-07-13T00:26:12;4.10;;;3.10;;
49450;SDS011;35336;48.400;10.886;2023-07-13T00:26:28;6.25;;;3.22;;
49450;SDS011;35336;48.400;10.886;2023-07-13T00:26:43;6.93;;;3.47;;
49450;SDS011;35336;48.400;10.886;2023-07-13T00:27:01;5.13;;;3.65;;
49450;SDS011;35336;48.400;10.886;2023-07-13T00:27:16;6.63;;;3.70;;
49450;SDS011;35336;48.400;10.886;2023-07-13T00:27:32;5.97;;;3.30;;
49450;SDS011;35336;48.400;10.886;2023-07-13T00:27:47;7.30;;;3.22;;
49450;SDS011;35336;48.400;10.886;2023-07-13T00:28:03;8.15;;;3.55;;
49450;SDS011;35336;48.400;10.886;2023-07-13T00:28:23;7.10;;;3.80;;
49450;SDS011;35336;48.400;10.886;2023-07-13T00:28:39;7.87;;;3.60;;
49450;SDS011;35336;48.400;10.886;2023-07-13T00:28:56;6.35;;;3.28;;
49450;SDS011;35336;48.400;10.886;2023-07-13T00:29:12;5.90;;;3.53;;
49450;SDS011;35336;48.400;10.886;2023-07-13T00:29:32;9.43;;;3.95;;
49450;SDS011;35336;48.400;10.886;2023-07-13T00:29:50;8.23;;;3.70;;
49450;SDS011;35336;48.400;10.886;2023-07-13T00:30:05;11.43;;;4.00;;
49450;SDS011;35336;48.400;10.886;2023-07-13T00:30:21;10.43;;;4.17;;
49450;SDS011;35336;48.400;10.886;2023-07-13T00:30:36;6.53;;;4.00;;
49450;SDS011;35336;48.400;10.886;2023-07-13T00:30:52;6.90;;;4.23;;
49450;SDS011;35336;48.400;10.886;2023-07-13T00:31:07;8.77;;;4.13;;
49450;SDS011;35336;48.400;10.886;2023-07-13T00:31:24;7.28;;;3.70;;
49450;SDS011;35336;48.400;10.886;2023-07-13T00:31:39;6.07;;;3.67;;
49450;SDS011;35336;48.400;10.886;2023-07-13T00:31:55;6.33;;;3.60;;
49450;SDS011;35336;48.400;10.886;2023-07-13T00:32:10;6.13;;;3.80;;
49450;SDS011;35336;48.400;10.886;2023-07-13T00:32:25;8.82;;;3.80;;
49450;SDS011;35336;48.400;10.886;2023-07-13T00:32:41;8.33;;;3.47;;
49450;SDS011;35336;48.400;10.886;2023-07-13T00:32:56;6.77;;;3.77;;
49450;SDS011;35336;48.400;10.886;2023-07-13T00:33:11;7.25;;;3.97;;
49450;SDS011;35336;48.400;10.886;2023-07-13T00:33:29;7.70;;;3.77;;
49450;SDS011;35336;48.400;10.886;2023-07-13T00:33:46;6.88;;;3.88;;
49450;SDS011;35336;48.400;10.886;2023-07-13T00:34:02;9.53;;;3.90;;
49450;SDS011;35336;48.400;10.886;2023-07-13T00:34:17;10.02;;;3.88;;
49450;SDS011;35336;48.400;10.886;2023-07-13T00:34:33;6.03;;;3.80;;
49450;SDS011;35336;48.400;10.886;2023-07-13T00:34:51;5.25;;;4.05;;
49450;SDS011;35336;48.400;10.886;2023-07-13T00:35:07;6.10;;;4.30;;
49450;SDS011;35336;48.400;10.886;2023-07-13T00:35:22;6.43;;;4.13;;
49450;SDS011;35336;48.400;10.886;2023-07-13T00:35:38;5.63;;;3.97;;
49450;SDS011;35336;48.400;10.886;2023-07-13T00:35:53;4.90;;;3.90;;
49450;SDS011;35336;48.400;10.886;2023-07-13T00:36:10;7.38;;;4.25;;
49450;SDS011;35336;48.400;10.886;2023-07-13T00:36:29;8.52;;;4.25;;
49450;SDS011;35336;48.400;10.886;2023-07-13T00:36:45;7.47;;;3.78;;
49450;SDS011;35336;48.400;10.886;2023-07-13T00:37:00;5.50;;;3.60;;
49450;SDS011;35336;48.400;10.886;2023-07-13T00:37:18;5.07;;;3.80;;
49450;SDS011;35336;48.400;10.886;2023-07-13T00:37:36;7.50;;;3.92;;
49450;SDS011;35336;48.400;10.886;2023-07-13T00:37:51;6.47;;;3.80;;
49450;SDS011;35336;48.400;10.886;2023-07-13T00:38:09;9.25;;;3.90;;
49450;SDS011;35336;48.400;10.886;2023-07-13T00:38:27;8.55;;;3.70;;
49450;SDS011;35336;48.400;10.886;2023-07-13T00:38:44;5.75;;;3.70;;
49450;SDS011;35336;48.400;10.886;2023-07-13T00:39:02;7.45;;;3.90;;
49450;SDS011;35336;48.400;10.886;2023-07-13T00:39:17;9.73;;;4.07;;
49450;SDS011;35336;48.400;10.886;2023-07-13T00:39:33;10.60;;;4.33;;
49450;SDS011;35336;48.400;10.886;2023-07-13T00:39:49;9.25;;;4.20;;
49450;SDS011;35336;48.400;10.886;2023-07-13T00:40:05;7.87;;;4.00;;
49450;SDS011;35336;48.400;10.886;2023-07-13T00:40:21;10.80;;;3.95;;
49450;SDS011;35336;48.400;10.886;2023-07-13T00:40:37;11.40;;;3.70;;
49450;SDS011;35336;48.400;10.886;2023-07-13T00:40:52;9.73;;;4.00;;
49450;SDS011;35336;48.400;10.886;2023-07-13T00:41:08;9.20;;;3.97;;
49450;SDS011;35336;48.400;10.886;2023-07-13T00:41:26;8.13;;;3.72;;
49450;SDS011;35336;48.400;10.886;2023-07-13T00:41:42;9.77;;;4.05;;
49450;SDS011;35336;48.400;10.886;2023-07-13T00:41:57;11.25;;;4.70;;
49450;SDS011;35336;48.400;10.886;2023-07-13T00:42:13;8.43;;;4.40;;
49450;SDS011;35336;48.400;10.886;2023-07-13T00:42:30;8.80;;;4.00;;
49450;SDS011;35336;48.400;10.886;2023-07-13T00:42:46;9.60;;;4.25;;
49450;SDS011;35336;48.400;10.886;2023-07-13T00:43:04;7.15;;;4.18;;
49450;SDS011;35336;48.400;10.886;2023-07-13T00:43:31;7.88;;;4.78;;
49450;SDS011;35336;48.400;10.886;2023-07-13T00:43:46;7.57;;;4.60;;
49450;SDS011;35336;48.400;10.886;2023-07-13T00:44:02;7.70;;;4.33;;
49450;SDS011;35336;48.400;10.886;2023-07-13T00:44:20;6.95;;;3.90;;
49450;SDS011;35336;48.400;10.886;2023-07-13T00:44:36;7.85;;;3.90;;
49450;SDS011;35336;48.400;10.886;2023-07-13T00:46:17;6.67;;;4.13;;
49450;SDS011;35336;48.400;10.886;2023-07-13T00:46:33;8.68;;;4.20;;
49450;SDS011;35336;48.400;10.886;2023-07-13T00:46:49;7.00;;;4.28;;
49450;SDS011;35336;48.400;10.886;2023-07-13T00:47:06;10.60;;;4.57;;
49450;SDS011;35336;48.400;10.886;2023-07-13T00:47:22;7.37;;;4.43;;
49450;SDS011;35336;48.400;10.886;2023-07-13T00:47:37;7.97;;;4.40;;
49450;SDS011;35336;48.400;10.886;2023-07-13T00:47:55;10.07;;;4.47;;
49450;SDS011;35336;48.400;10.886;2023-07-13T00:48:12;7.47;;;4.43;;
49450;SDS011;35336;48.400;10.886;2023-07-13T00:48:43;8.85;;;4.43;;
49450;SDS011;35336;48.400;10.886;2023-07-13T00:49:04;6.00;;;3.85;;
49450;SDS011;35336;48.400;10.886;2023-07-13T00:49:23;6.18;;;4.10;;
49450;SDS011;35336;48.400;10.886;2023-07-13T00:49:41;7.20;;;4.30;;
49450;SDS011;35336;48.400;10.886;2023-07-13T00:49:56;7.90;;;4.10;;
49450;SDS011;35336;48.400;10.886;2023-07-13T00:50:13;8.47;;;4.03;;
49450;SDS011;35336;48.400;10.886;2023-07-13T00:50:31;9.43;;;4.05;;
49450;SDS011;35336;48.400;10.886;2023-07-13T00:50:46;9.17;;;4.30;;
49450;SDS011;35336;48.400;10.886;2023-07-13T00:51:08;9.32;;;4.32;;
49450;SDS011;35336;48.400;10.886;2023-07-13T00:51:27;7.25;;;4.03;;
49450;SDS011;35336;48.400;10.886;2023-07-13T00:51:53;6.03;;;4.35;;
49450;SDS011;35336;48.400;10.886;2023-07-13T00:52:12;7.93;;;4.45;;
49450;SDS011;35336;48.400;10.886;2023-07-13T00:52:29;6.18;;;4.20;;
49450;SDS011;35336;48.400;10.886;2023-07-13T00:52:48;8.13;;;4.57;;
49450;SDS011;35336;48.400;10.886;2023-07-13T00:53:09;11.93;;;4.40;;
49450;SDS011;35336;48.400;10.886;2023-07-13T00:53:26;8.02;;;4.40;;
49450;SDS011;35336;48.400;10.886;2023-07-13T00:53:44;7.10;;;4.20;;
49450;SDS011;35336;48.400;10.886;2023-07-13T00:54:03;9.90;;;4.32;;
49450;SDS011;35336;48.400;10.886;2023-07-13T00:54:26;9.10;;;4.78;;
49450;SDS011;35336;48.400;10.886;2023-07-13T00:54:47;8.18;;;4.93;;
49450;SDS011;35336;48.400;10.886;2023-07-13T00:55:03;7.20;;;4.63;;
49450;SDS011;35336;48.400;10.886;2023-07-13T00:55:22;9.18;;;4.75;;
49450;SDS011;35336;48.400;10.886;2023-07-13T00:55:37;8.77;;;4.90;;
49450;SDS011;35336;48.400;10.886;2023-07-13T00:55:54;8.90;;;4.88;;
49450;SDS011;35336;48.400;10.886;2023-07-13T00:56:13;11.93;;;4.78;;
49450;SDS011;35336;48.400;10.886;2023-07-13T00:56:28;10.02;;;4.70;;
49450;SDS011;35336;48.400;10.886;2023-07-13T00:56:50;10.10;;;4.82;;
49450;SDS011;35336;48.400;10.886;2023-07-13T00:57:09;9.05;;;4.82;;
49450;SDS011;35336;48.400;10.886;2023-07-13T00:57:28;8.63;;;4.50;;
49450;SDS011;35336;48.400;10.886;2023-07-13T00:57:44;7.23;;;4.63;;
49450;SDS011;35336;48.400;10.886;2023-07-13T00:58:01;9.00;;;4.65;;
49450;SDS011;35336;48.400;10.886;2023-07-13T00:58:19;10.33;;;4.50;;
49450;SDS011;35336;48.400;10.886;2023-07-13T00:58:34;10.27;;;4.50;;
49450;SDS011;35336;48.400;10.886;2023-07-13T00:58:50;7.83;;;4.50;;
49450;SDS011;35336;48.400;10.886;2023-07-13T00:59:08;6.65;;;4.53;;
49450;SDS011;35336;48.400;10.886;2023-07-13T00:59:25;8.88;;;4.97;;
49450;SDS011;35336;48.400;10.886;2023-07-13T00:59:42;8.20;;;4.57;;
49450;SDS011;35336;48.400;10.886;2023-07-13T01:00:05;9.38;;;4.45;;
49450;SDS011;35336;48.400;10.886;2023-07-13T01:00:24;7.93;;;4.20;;
49450;SDS011;35336;48.400;10.886;2023-07-13T01:00:42;9.02;;;4.47;;
49450;SDS011;35336;48.400;10.886;2023-07-13T01:00:58;7.68;;;4.38;;
49450;SDS011;35336;48.400;10.886;2023-07-13T01:01:13;10.30;;;4.63;;
49450;SDS011;35336;48.400;10.886;2023-07-13T01:01:31;10.57;;;5.13;;
49450;SDS011;35336;48.400;10.886;2023-07-13T01:01:46;8.57;;;5.27;;
49450;SDS011;35336;48.400;10.886;2023-07-13T01:02:05;7.50;;;4.68;;
49450;SDS011;35336;48.400;10.886;2023-07-13T01:02:20;9.73;;;4.77;;
49450;SDS011;35336;48.400;10.886;2023-07-13T01:02:37;12.00;;;5.22;;
49450;SDS011;35336;48.400;10.886;2023-07-13T01:02:54;9.77;;;4.97;;
49450;SDS011;35336;48.400;10.886;2023-07-13T01:03:12;7.07;;;4.60;;
49450;SDS011;35336;48.400;10.886;2023-07-13T01:03:30;7.18;;;4.82;;
49450;SDS011;35336;48.400;10.886;2023-07-13T01:03:48;8.43;;;4.85;;
49450;SDS011;35336;48.400;10.886;2023-07-13T01:04:03;9.17;;;5.03;;
49450;SDS011;35336;48.400;10.886;2023-07-13T01:04:18;7.65;;;4.70;;
49450;SDS011;35336;48.400;10.886;2023-07-13T01:04:36;6.63;;;4.50;;
49450;SDS011;35336;48.400;10.886;2023-07-13T01:04:52;8.53;;;4.80;;
49450;SDS011;35336;48.400;10.886;2023-07-13T01:05:17;8.32;;;4.97;;
49450;SDS011;35336;48.400;10.886;2023-07-13T01:05:35;9.20;;;5.00;;
49450;SDS011;35336;48.400;10.886;2023-07-13T01:05:51;7.90;;;5.03;;
49450;SDS011;35336;48.400;10.886;2023-07-13T01:06:09;10.45;;;5.10;;
49450;SDS011;35336;48.400;10.886;2023-07-13T01:06:25;9.02;;;4.95;;
49450;SDS011;35336;48.400;10.886;2023-07-13T01:06:40;6.80;;;4.90;;
49450;SDS011;35336;48.400;10.886;2023-07-13T01:07:00;8.35;;;5.00;;
49450;SDS011;35336;48.400;10.886;2023-07-13T01:07:15;8.00;;;5.10;;
49450;SDS011;35336;48.400;10.886;2023-07-13T01:07:31;10.53;;;5.00;;
49450;SDS011;35336;48.400;10.886;2023-07-13T01:07:51;8.02;;;4.90;;
49450;SDS011;35336;48.400;10.886;2023-07-13T01:08:07;11.23;;;5.03;;
49450;SDS011;35336;48.400;10.886;2023-07-13T01:08:23;12.60;;;5.27;;
49450;SDS011;35336;48.400;10.886;2023-07-13T01:08:38;10.27;;;5.07;;
49450;SDS011;35336;48.400;10.886;2023-07-13T01:08:58;10.48;;;4.95;;
49450;SDS011;35336;48.400;10.886;2023-07-13T01:09:14;11.18;;;5.32;;
49450;SDS011;35336;48.400;10.886;2023-07-13T01:09:34;11.00;;;5.28;;
49450;SDS011;35336;48.400;10.886;2023-07-13T01:09:49;7.85;;;5.38;;
49450;SDS011;35336;48.400;10.886;2023-07-13T01:10:05;7.30;;;5.15;;
49450;SDS011;35336;48.400;10.886;2023-07-13T01:10:23;7.68;;;4.93;;
49450;SDS011;35336;48.400;10.886;2023-07-13T01:10:42;9.85;;;5.20;;
49450;SDS011;35336;48.400;10.886;2023-07-13T01:11:07;10.13;;;5.00;;
49450;SDS011;35336;48.400;10.886;2023-07-13T01:11:23;7.82;;;5.10;;
49450;SDS011;35336;48.400;10.886;2023-07-13T01:11:38;8.63;;;5.70;;
49450;SDS011;35336;48.400;10.886;2023-07-13T01:11:54;8.90;;;5.43;;
49450;SDS011;35336;48.400;10.886;2023-07-13T01:12:09;10.20;;;4.90;;
49450;SDS011;35336;48.400;10.886;2023-07-13T01:12:25;12.40;;;5.25;;
49450;SDS011;35336;48.400;10.886;2023-07-13T01:12:42;12.30;;;5.90;;
49450;SDS011;35336;48.400;10.886;2023-07-13T01:12:57;9.80;;;5.72;;
49450;SDS011;35336;48.400;10.886;2023-07-13T01:13:13;8.67;;;4.87;;
49450;SDS011;35336;48.400;10.886;2023-07-13T01:13:28;9.67;;;4.67;;
49450;SDS011;35336;48.400;10.886;2023-07-13T01:13:43;8.47;;;4.80;;
49450;SDS011;35336;48.400;10.886;2023-07-13T01:13:59;7.30;;;4.93;;
49450;SDS011;35336;48.400;10.886;2023-07-13T01:14:16;6.82;;;4.80;;
49450;SDS011;35336;48.400;10.886;2023-07-13T01:14:32;7.10;;;4.90;;
49450;SDS011;35336;48.400;10.886;2023-07-13T01:14:47;9.57;;;5.00;;
49450;SDS011;35336;48.400;10.886;2023-07-13T01:15:02;9.82;;;5.13;;
49450;SDS011;35336;48.400;10.886;2023-07-13T01:15:33;8.67;;;5.07;;
49450;SDS011;35336;48.400;10.886;2023-07-13T01:15:49;9.40;;;5.13;;
49450;SDS011;35336;48.400;10.886;2023-07-13T01:16:11;7.88;;;5.20;;
49450;SDS011;35336;48.400;10.886;2023-07-13T01:16:37;9.35;;;5.32;;
49450;SDS011;35336;48.400;10.886;2023-07-13T01:16:57;9.02;;;5.18;;
49450;SDS011;35336;48.400;10.886;2023-07-13T01:17:13;10.60;;;5.10;;
49450;SDS011;35336;48.400;10.886;2023-07-13T01:17:29;10.00;;;5.17;;
49450;SDS011;35336;48.400;10.886;2023-07-13T01:17:47;6.90;;;5.03;;
49450;SDS011;35336;48.400;10.886;2023-07-13T01:18:03;9.27;;;5.20;;
49450;SDS011;35336;48.400;10.886;2023-07-13T01:18:25;9.80;;;5.57;;
49450;SDS011;35336;48.400;10.886;2023-07-13T01:18:41;10.32;;;5.35;;
49450;SDS011;35336;48.400;10.886;2023-07-13T01:18:57;9.85;;;5.18;;
49450;SDS011;35336;48.400;10.886;2023-07-13T01:19:50;7.65;;;5.00;;
49450;SDS011;35336;48.400;10.886;2023-07-13T01:20:06;8.87;;;5.20;;
49450;SDS011;35336;48.400;10.886;2023-07-13T01:20:21;7.43;;;4.97;;
49450;SDS011;35336;48.400;10.886;2023-07-13T01:20:40;6.23;;;4.83;;
49450;SDS011;35336;48.400;10.886;2023-07-13T01:21:02;9.73;;;5.97;;
49450;SDS011;35336;48.400;10.886;2023-07-13T01:21:19;9.98;;;5.70;;
49450;SDS011;35336;48.400;10.886;2023-07-13T01:21:35;8.73;;;5.10;;
49450;SDS011;35336;48.400;10.886;2023-07-13T01:21:51;10.00;;;5.20;;
49450;SDS011;35336;48.400;10.886;2023-07-13T01:22:18;9.23;;;5.32;;
49450;SDS011;35336;48.400;10.886;2023-07-13T01:22:34;6.05;;;4.90;;
49450;SDS011;35336;48.400;10.886;2023-07-13T01:22:49;8.33;;;5.10;;
49450;SDS011;35336;48.400;10.886;2023-07-13T01:23:10;12.77;;;5.20;;
49450;SDS011;35336;48.400;10.886;2023-07-13T01:23:26;8.23;;;5.10;;
49450;SDS011;35336;48.400;10.886;2023-07-13T01:23:43;9.57;;;5.63;;
49450;SDS011;35336;48.400;10.886;2023-07-13T01:23:58;10.03;;;5.43;;
49450;SDS011;35336;48.400;10.886;2023-07-13T01:24:14;9.63;;;5.05;;
49450;SDS011;35336;48.400;10.886;2023-07-13T01:24:32;10.15;;;5.10;;
49450;SDS011;35336;48.400;10.886;2023-07-13T01:24:49;6.90;;;5.40;;
49450;SDS011;35336;48.400;10.886;2023-07-13T01:25:08;7.68;;;5.45;;
49450;SDS011;35336;48.400;10.886;2023-07-13T01:25:23;8.50;;;5.40;;
49450;SDS011;35336;48.400;10.886;2023-07-13T01:25:39;9.68;;;5.90;;
49450;SDS011;35336;48.400;10.886;2023-07-13T01:25:54;10.80;;;5.80;;
49450;SDS011;35336;48.400;10.886;2023-07-13T01:26:13;8.25;;;5.13;;
49450;SDS011;35336;48.400;10.886;2023-07-13T01:26:31;10.75;;;5.35;;
49450;SDS011;35336;48.400;10.886;2023-07-13T01:26:46;8.45;;;5.28;;
49450;SDS011;35336;48.400;10.886;2023-07-13T01:27:02;8.18;;;5.10;;
49450;SDS011;35336;48.400;10.886;2023-07-13T01:27:22;10.55;;;5.93;;
49450;SDS011;35336;48.400;10.886;2023-07-13T01:27:39;10.75;;;5.85;;
49450;SDS011;35336;48.400;10.886;2023-07-13T01:27:54;8.17;;;5.13;;
49450;SDS011;35336;48.400;10.886;2023-07-13T01:28:10;8.73;;;5.35;;
49450;SDS011;35336;48.400;10.886;2023-07-13T01:28:30;9.25;;;5.43;;
49450;SDS011;35336;48.400;10.886;2023-07-13T01:28:45;12.57;;;5.20;;
49450;SDS011;35336;48.400;10.886;2023-07-13T01:29:03;13.60;;;5.30;;
49450;SDS011;35336;48.400;10.886;2023-07-13T01:29:18;12.75;;;5.53;;
49450;SDS011;35336;48.400;10.886;2023-07-13T01:29:34;12.25;;;5.70;;
49450;SDS011;35336;48.400;10.886;2023-07-13T01:29:53;11.38;;;5.60;;
49450;SDS011;35336;48.400;10.886;2023-07-13T01:30:10;10.75;;;5.38;;
49450;SDS011;35336;48.400;10.886;2023-07-13T01:30:26;10.02;;;5.60;;
49450;SDS011;35336;48.400;10.886;2023-07-13T01:30:44;10.10;;;5.77;;
49450;SDS011;35336;48.400;10.886;2023-07-13T01:31:00;11.55;;;5.90;;
49450;SDS011;35336;48.400;10.886;2023-07-13T01:31:16;13.13;;;5.95;;
49450;SDS011;35336;48.400;10.886;2023-07-13T01:31:33;11.05;;;6.22;;
49450;SDS011;35336;48.400;10.886;2023-07-13T01:31:53;9.18;;;5.78;;
49450;SDS011;35336;48.400;10.886;2023-07-13T01:32:09;10.55;;;5.57;;
49450;SDS011;35336;48.400;10.886;2023-07-13T01:32:29;8.52;;;5.53;;
49450;SDS011;35336;48.400;10.886;2023-07-13T01:32:47;9.23;;;5.32;;
49450;SDS011;35336;48.400;10.886;2023-07-13T01:33:02;10.80;;;5.57;;
49450;SDS011;35336;48.400;10.886;2023-07-13T01:33:17;10.53;;;5.57;;
49450;SDS011;35336;48.400;10.886;2023-07-13T01:33:33;9.32;;;5.60;;
49450;SDS011;35336;48.400;10.886;2023-07-13T01:33:48;9.03;;;5.50;;
49450;SDS011;35336;48.400;10.886;2023-07-13T01:34:03;10.73;;;5.20;;
49450;SDS011;35336;48.400;10.886;2023-07-13T01:34:21;9.85;;;5.57;;
49450;SDS011;35336;48.400;10.886;2023-07-13T01:34:39;9.07;;;5.70;;
49450;SDS011;35336;48.400;10.886;2023-07-13T01:34:54;9.07;;;5.65;;
49450;SDS011;35336;48.400;10.886;2023-07-13T01:35:12;11.32;;;5.82;;
49450;SDS011;35336;48.400;10.886;2023-07-13T01:35:27;11.00;;;5.73;;
49450;SDS011;35336;48.400;10.886;2023-07-13T01:35:43;10.03;;;5.70;;
49450;SDS011;35336;48.400;10.886;2023-07-13T01:36:02;9.02;;;5.90;;
49450;SDS011;35336;48.400;10.886;2023-07-13T01:36:22;9.15;;;5.70;;
49450;SDS011;35336;48.400;10.886;2023-07-13T01:36:37;10.50;;;5.63;;
49450;SDS011;35336;48.400;10.886;2023-07-13T01:36:54;9.65;;;5.70;;
49450;SDS011;35336;48.400;10.886;2023-07-13T01:37:10;9.90;;;5.85;;
49450;SDS011;35336;48.400;10.886;2023-07-13T01:37:26;10.38;;;5.57;;
49450;SDS011;35336;48.400;10.886;2023-07-13T01:37:42;8.70;;;5.55;;
49450;SDS011;35336;48.400;10.886;2023-07-13T01:37:57;9.43;;;5.87;;
49450;SDS011;35336;48.400;10.886;2023-07-13T01:38:16;7.83;;;5.33;;
49450;SDS011;35336;48.400;10.886;2023-07-13T01:38:34;6.53;;;5.22;;
49450;SDS011;35336;48.400;10.886;2023-07-13T01:38:52;7.40;;;5.28;;
49450;SDS011;35336;48.400;10.886;2023-07-13T01:39:07;9.17;;;5.37;;
49450;SDS011;35336;48.400;10.886;2023-07-13T01:39:25;10.30;;;5.20;;
49450;SDS011;35336;48.400;10.886;2023-07-13T01:39:40;10.27;;;5.55;;
49450;SDS011;35336;48.400;10.886;2023-07-13T01:39:56;11.60;;;6.00;;
49450;SDS011;35336;48.400;10.886;2023-07-13T01:40:14;12.80;;;5.55;;
49450;SDS011;35336;48.400;10.886;2023-07-13T01:40:29;11.03;;;5.73;;
49450;SDS011;35336;48.400;10.886;2023-07-13T01:40:49;14.35;;;6.18;;
49450;SDS011;35336;48.400;10.886;2023-07-13T01:41:08;12.82;;;6.00;;
49450;SDS011;35336;48.400;10.886;2023-07-13T01:41:23;8.52;;;6.20;;
49450;SDS011;35336;48.400;10.886;2023-07-13T01:41:38;10.80;;;6.17;;
49450;SDS011;35336;48.400;10.886;2023-07-13T01:41:54;11.57;;;5.80;;
49450;SDS011;35336;48.400;10.886;2023-07-13T01:42:09;10.43;;;5.75;;
49450;SDS011;35336;48.400;10.886;2023-07-13T01:42:27;8.95;;;5.63;;
49450;SDS011;35336;48.400;10.886;2023-07-13T01:42:43;8.65;;;5.55;;
49450;SDS011;35336;48.400;10.886;2023-07-13T01:43:00;9.93;;;5.97;;
49450;SDS011;35336;48.400;10.886;2023-07-13T01:43:15;11.93;;;5.90;;